createdAt,value
2022-12-26T00:01:06.765Z,13.98
2022-12-26T00:03:33.927Z,13.48
2022-12-26T00:06:01.527Z,12.88
2022-12-26T00:08:28.562Z,14.30
2022-12-26T00:10:55.645Z,12.88
2022-12-26T00:13:40.262Z,13.82
2022-12-26T00:16:12.312Z,12.82
2022-12-26T00:18:40.310Z,13.68
2022-12-26T00:21:09.055Z,13.93
2022-12-26T00:23:36.776Z,12.68
2022-12-26T00:26:15.598Z,13.95
2022-12-26T00:28:43.654Z,13.62
2022-12-26T00:31:18.870Z,14.60
2022-12-26T00:33:46.499Z,15.25
2022-12-26T00:36:16.550Z,13.90
2022-12-26T00:38:44.694Z,13.98
2022-12-26T00:41:13.707Z,14.75
2022-12-26T00:43:41.680Z,14.03
2022-12-26T00:46:09.111Z,14.18
2022-12-26T00:48:36.184Z,15.45
2022-12-26T00:51:03.351Z,14.98
2022-12-26T00:53:30.647Z,14.57
2022-12-26T00:55:57.961Z,15.50
2022-12-26T00:58:27.466Z,15.98
2022-12-26T01:00:55.324Z,14.45
2022-12-26T01:03:22.740Z,15.40
2022-12-26T01:05:51.680Z,15.23
2022-12-26T01:08:24.099Z,14.30
2022-12-26T01:10:52.433Z,15.68
2022-12-26T01:13:20.043Z,14.13
2022-12-26T01:15:55.367Z,14.80
2022-12-26T01:18:22.522Z,15.38
2022-12-26T01:20:50.191Z,15.43
2022-12-26T01:23:17.699Z,14.93
2022-12-26T01:26:15.156Z,13.80
2022-12-26T01:28:31.930Z,14.75
2022-12-26T01:31:11.566Z,15.00
2022-12-26T01:33:39.211Z,15.38
2022-12-26T01:36:07.597Z,15.32
2022-12-26T01:38:35.214Z,16.02
2022-12-26T01:41:28.346Z,15.88
2022-12-26T01:44:02.673Z,15.93
2022-12-26T01:46:44.137Z,17.42
2022-12-26T01:49:29.452Z,17.05
2022-12-26T01:52:07.313Z,17.40
2022-12-26T01:54:42.340Z,16.15
2022-12-26T01:57:21.251Z,17.83
2022-12-26T01:59:50.072Z,17.60
2022-12-26T02:02:19.245Z,17.40
2022-12-26T02:05:07.841Z,18.02
2022-12-26T02:07:37.641Z,17.52
2022-12-26T02:12:38.685Z,16.83
2022-12-26T02:15:17.729Z,16.45
2022-12-26T02:17:45.299Z,17.87
2022-12-26T02:20:28.979Z,17.45
2022-12-26T02:23:04.919Z,18.73
2022-12-26T02:25:55.753Z,18.95
2022-12-26T02:28:35.722Z,19.60
2022-12-26T02:31:21.870Z,17.05
2022-12-26T02:33:51.524Z,18.42
2022-12-26T02:36:39.820Z,18.75
2022-12-26T02:39:47.697Z,17.80
2022-12-26T02:42:29.042Z,18.23
2022-12-26T02:45:22.647Z,18.98
2022-12-26T02:48:28.088Z,17.27
2022-12-26T02:51:23.198Z,19.52
2022-12-26T02:54:20.671Z,17.05
2022-12-26T02:57:12.645Z,17.95
2022-12-26T03:00:30.408Z,18.65
2022-12-26T03:03:22.274Z,20.92
2022-12-26T03:06:12.441Z,21.48
2022-12-26T03:09:11.681Z,21.15
2022-12-26T03:12:00.454Z,19.55
2022-12-26T03:14:31.089Z,18.00
2022-12-26T03:17:21.602Z,18.90
2022-12-26T03:20:03.489Z,17.80
2022-12-26T03:22:58.469Z,18.10
2022-12-26T03:25:43.897Z,18.95
2022-12-26T03:28:14.024Z,16.52
2022-12-26T03:30:50.932Z,17.23
2022-12-26T03:33:39.716Z,17.25
2022-12-26T03:36:08.669Z,17.92
2022-12-26T03:38:51.570Z,16.93
2022-12-26T03:41:55.481Z,16.77
2022-12-26T03:45:01.089Z,15.98
2022-12-26T03:48:15.170Z,17.15
2022-12-26T03:51:06.334Z,15.80
2022-12-26T03:54:15.000Z,16.23
2022-12-26T03:57:13.119Z,17.45
2022-12-26T04:00:18.184Z,15.98
2022-12-26T04:03:07.093Z,16.40
2022-12-26T04:05:56.216Z,16.67
2022-12-26T04:08:48.885Z,16.77
2022-12-26T04:11:38.163Z,16.58
2022-12-26T04:14:39.186Z,16.67
2022-12-26T04:17:50.031Z,18.15
2022-12-26T04:20:33.863Z,20.15
2022-12-26T04:23:47.461Z,20.80
2022-12-26T04:27:14.170Z,20.75
2022-12-26T04:30:00.586Z,23.75
2022-12-26T04:33:02.819Z,23.75
2022-12-26T04:35:54.040Z,26.12
2022-12-26T04:38:46.171Z,22.02
2022-12-26T04:41:33.835Z,19.20
2022-12-26T04:44:08.684Z,18.67
2022-12-26T04:46:39.309Z,18.15
2022-12-26T04:49:27.020Z,17.37
2022-12-26T04:51:56.511Z,16.55
2022-12-26T04:54:24.185Z,21.33
2022-12-26T04:56:51.200Z,20.17
2022-12-26T04:59:18.807Z,19.65
2022-12-26T05:02:04.327Z,19.15
2022-12-26T05:04:49.722Z,22.20
2022-12-26T05:07:49.216Z,20.67
2022-12-26T05:10:21.289Z,20.45
2022-12-26T05:12:48.555Z,20.37
2022-12-26T05:15:16.523Z,18.30
2022-12-26T05:18:02.812Z,19.27
2022-12-26T05:20:51.621Z,18.60
2022-12-26T05:23:39.874Z,17.85
2022-12-26T05:26:31.284Z,19.77
2022-12-26T05:29:00.571Z,18.65
2022-12-26T05:31:34.607Z,17.92
2022-12-26T05:34:11.071Z,17.02
2022-12-26T05:36:41.765Z,18.05
2022-12-26T05:39:09.417Z,17.50
2022-12-26T05:41:38.357Z,21.50
2022-12-26T05:44:05.916Z,22.10
2022-12-26T05:46:33.854Z,19.90
2022-12-26T05:49:03.282Z,21.08
2022-12-26T05:51:30.289Z,20.30
2022-12-26T05:53:57.286Z,23.12
2022-12-26T05:56:24.907Z,25.65
2022-12-26T05:58:56.476Z,23.30
2022-12-26T06:01:26.124Z,27.33
2022-12-26T06:03:57.429Z,23.55
2022-12-26T06:06:27.207Z,23.00
2022-12-26T06:08:55.685Z,22.10
2022-12-26T06:11:23.648Z,20.45
2022-12-26T06:13:50.566Z,21.20
2022-12-26T06:16:19.028Z,21.62
2022-12-26T06:18:47.046Z,25.17
2022-12-26T06:21:19.635Z,22.70
2022-12-26T06:23:47.273Z,21.17
2022-12-26T06:26:14.648Z,20.52
2022-12-26T06:28:43.707Z,20.27
2022-12-26T06:31:21.304Z,20.02
2022-12-26T06:33:50.953Z,18.40
2022-12-26T06:36:20.153Z,20.40
2022-12-26T06:38:47.125Z,19.62
2022-12-26T06:41:17.787Z,21.35
2022-12-26T06:43:45.577Z,22.65
2022-12-26T06:46:18.454Z,20.80
2022-12-26T06:48:46.137Z,25.27
2022-12-26T06:51:22.130Z,23.80
2022-12-26T06:53:50.815Z,32.75
2022-12-26T06:56:26.173Z,22.52
2022-12-26T06:58:58.573Z,19.83
2022-12-26T07:01:28.129Z,20.30
2022-12-26T07:03:55.932Z,23.17
2022-12-26T07:06:30.528Z,19.62
2022-12-26T07:09:03.636Z,18.90
2022-12-26T07:11:35.878Z,19.70
2022-12-26T07:14:03.587Z,18.67
2022-12-26T07:16:31.171Z,17.35
2022-12-26T07:18:58.988Z,19.75
2022-12-26T07:21:26.750Z,15.27
2022-12-26T07:23:54.749Z,14.55
2022-12-26T07:26:22.869Z,14.07
2022-12-26T07:28:53.618Z,17.67
2022-12-26T07:31:21.641Z,13.80
2022-12-26T07:33:55.491Z,13.35
2022-12-26T07:36:23.786Z,12.25
2022-12-26T07:38:51.531Z,11.23
2022-12-26T07:41:39.014Z,9.80
2022-12-26T07:44:06.761Z,11.68
2022-12-26T07:46:34.468Z,11.10
2022-12-26T07:49:02.091Z,11.45
2022-12-26T07:51:29.414Z,10.80
2022-12-26T07:53:56.708Z,11.23
2022-12-26T07:56:23.631Z,10.63
2022-12-26T07:58:54.147Z,12.75
2022-12-26T08:01:22.349Z,14.00
2022-12-26T08:03:50.448Z,13.07
2022-12-26T08:06:19.096Z,13.13
2022-12-26T08:08:51.181Z,11.82
2022-12-26T08:11:22.551Z,12.10
2022-12-26T08:13:50.141Z,10.35
2022-12-26T08:16:17.971Z,11.45
2022-12-26T08:18:45.442Z,12.65
2022-12-26T08:21:13.189Z,12.07
2022-12-26T08:23:40.712Z,11.77
2022-12-26T08:26:09.836Z,12.77
2022-12-26T08:28:37.302Z,16.12
2022-12-26T08:31:08.960Z,25.60
2022-12-26T08:33:36.163Z,26.17
2022-12-26T08:36:04.666Z,20.55
2022-12-26T08:38:33.740Z,14.70
2022-12-26T08:41:02.205Z,16.55
2022-12-26T08:43:45.413Z,23.58
2022-12-26T08:46:16.683Z,25.37
2022-12-26T08:48:45.221Z,21.62
2022-12-26T08:51:15.612Z,19.15
2022-12-26T08:53:42.808Z,17.20
2022-12-26T08:56:14.212Z,16.50
2022-12-26T08:58:44.600Z,13.23
2022-12-26T09:01:27.459Z,13.85
2022-12-26T09:03:56.502Z,14.73
2022-12-26T09:06:24.322Z,15.48
2022-12-26T09:08:52.273Z,13.27
2022-12-26T09:11:27.260Z,11.82
2022-12-26T09:13:55.678Z,13.30
2022-12-26T09:16:26.377Z,16.40
2022-12-26T09:18:59.444Z,13.13
2022-12-26T09:21:29.199Z,10.13
2022-12-26T09:24:00.864Z,11.95
2022-12-26T09:26:29.316Z,11.20
2022-12-26T09:28:57.259Z,13.38
2022-12-26T09:31:27.225Z,11.45
2022-12-26T09:33:54.265Z,11.43
2022-12-26T09:36:24.448Z,13.23
2022-12-26T09:38:51.823Z,11.40
2022-12-26T09:41:42.407Z,10.95
2022-12-26T09:44:47.809Z,10.10
2022-12-26T09:47:35.158Z,10.38
2022-12-26T09:50:05.368Z,9.93
2022-12-26T09:52:46.654Z,9.85
2022-12-26T09:55:36.994Z,10.15
2022-12-26T09:58:24.709Z,9.75
2022-12-26T10:01:01.404Z,10.35
2022-12-26T10:03:29.148Z,10.55
2022-12-26T10:06:02.231Z,9.02
2022-12-26T10:08:49.352Z,8.45
2022-12-26T10:11:32.705Z,8.55
2022-12-26T10:14:04.145Z,7.18
2022-12-26T10:16:33.953Z,7.25
2022-12-26T10:21:53.369Z,6.15
2022-12-26T10:24:26.343Z,6.18
2022-12-26T10:27:00.664Z,6.22
2022-12-26T10:29:34.059Z,6.72
2022-12-26T10:32:05.479Z,6.53
2022-12-26T10:34:47.748Z,6.60
2022-12-26T10:37:24.488Z,5.90
2022-12-26T10:40:09.959Z,6.32
2022-12-26T10:42:38.308Z,5.97
2022-12-26T10:45:17.635Z,6.28
2022-12-26T10:47:47.270Z,6.95
2022-12-26T10:50:27.698Z,6.60
2022-12-26T10:52:56.022Z,6.87
2022-12-26T10:55:31.789Z,6.25
2022-12-26T10:58:15.416Z,5.78
2022-12-26T11:00:42.551Z,5.20
2022-12-26T11:03:15.392Z,6.35
2022-12-26T11:06:09.145Z,5.03
2022-12-26T11:08:47.804Z,5.18
2022-12-26T11:11:25.000Z,5.07
2022-12-26T11:14:02.098Z,4.78
2022-12-26T11:16:32.581Z,4.12
2022-12-26T11:18:59.809Z,4.62
2022-12-26T11:21:32.458Z,4.32
2022-12-26T11:24:18.875Z,5.22
2022-12-26T11:26:46.811Z,3.80
2022-12-26T11:29:26.502Z,4.95
2022-12-26T11:32:02.935Z,3.97
2022-12-26T11:34:34.689Z,3.53
2022-12-26T11:37:04.208Z,3.67
2022-12-26T11:39:35.275Z,4.07
2022-12-26T11:42:10.377Z,3.97
2022-12-26T11:44:41.361Z,4.28
2022-12-26T11:47:13.345Z,4.40
2022-12-26T11:49:50.879Z,4.03
2022-12-26T11:52:53.166Z,4.50
2022-12-26T11:55:23.003Z,4.60
2022-12-26T11:58:09.106Z,4.25
2022-12-26T12:00:37.434Z,4.28
2022-12-26T12:03:13.071Z,4.40
2022-12-26T12:06:07.851Z,4.37
2022-12-26T12:09:06.318Z,4.40
2022-12-26T12:11:47.845Z,3.22
2022-12-26T12:14:52.670Z,4.18
2022-12-26T12:17:43.281Z,4.45
2022-12-26T12:20:10.211Z,3.30
2022-12-26T12:22:52.338Z,3.95
2022-12-26T12:25:54.393Z,3.62
2022-12-26T12:29:01.416Z,4.07
2022-12-26T12:31:28.365Z,4.60
2022-12-26T12:34:18.335Z,3.85
2022-12-26T12:37:27.651Z,3.60
2022-12-26T12:40:34.134Z,4.18
2022-12-26T12:43:20.226Z,3.70
2022-12-26T12:46:07.069Z,3.22
2022-12-26T12:49:03.908Z,3.75
2022-12-26T12:51:44.502Z,3.55
2022-12-26T12:54:45.756Z,3.12
2022-12-26T12:57:20.143Z,3.40
2022-12-26T13:00:13.946Z,2.90
2022-12-26T13:03:01.791Z,3.50
2022-12-26T13:06:03.885Z,3.55
2022-12-26T13:09:14.226Z,3.58
2022-12-26T13:11:56.715Z,3.70
2022-12-26T13:14:37.223Z,3.03
2022-12-26T13:17:13.326Z,3.35
2022-12-26T13:20:06.341Z,3.00
2022-12-26T13:23:04.550Z,3.50
2022-12-26T13:25:37.344Z,2.97
2022-12-26T13:28:12.128Z,2.53
2022-12-26T13:30:39.891Z,3.22
2022-12-26T13:33:07.119Z,3.78
2022-12-26T13:35:55.465Z,3.53
2022-12-26T13:38:24.667Z,3.78
2022-12-26T13:41:20.539Z,4.20
2022-12-26T13:44:02.286Z,3.75
2022-12-26T13:46:53.783Z,3.62
2022-12-26T13:49:37.391Z,3.83
2022-12-26T13:52:19.439Z,3.35
2022-12-26T13:54:50.896Z,4.45
2022-12-26T13:57:36.859Z,4.05
2022-12-26T14:00:07.198Z,3.53
2022-12-26T14:03:18.087Z,4.37
2022-12-26T14:05:40.032Z,4.07
2022-12-26T14:08:10.517Z,4.57
2022-12-26T14:10:55.988Z,4.18
2022-12-26T14:14:00.054Z,3.87
2022-12-26T14:16:45.602Z,15.40
2022-12-26T14:19:37.460Z,5.62
2022-12-26T14:22:26.055Z,6.50
2022-12-26T14:25:31.509Z,8.98
2022-12-26T14:28:22.167Z,9.15
2022-12-26T14:30:55.238Z,7.00
2022-12-26T14:33:54.513Z,7.93
2022-12-26T14:36:27.357Z,6.03
2022-12-26T14:39:10.463Z,6.97
2022-12-26T14:42:25.728Z,6.10
2022-12-26T14:44:58.123Z,4.75
2022-12-26T14:47:47.220Z,5.32
2022-12-26T14:50:32.743Z,4.07
2022-12-26T14:53:30.584Z,3.90
2022-12-26T14:56:14.442Z,3.60
2022-12-26T14:58:45.847Z,4.25
2022-12-26T15:01:17.442Z,3.92
2022-12-26T15:04:07.641Z,3.25
2022-12-26T15:09:38.129Z,3.62
2022-12-26T15:12:05.950Z,5.03
2022-12-26T15:14:58.041Z,6.05
2022-12-26T15:17:51.152Z,5.43
2022-12-26T15:20:37.017Z,4.72
2022-12-26T15:23:19.462Z,4.05
2022-12-26T15:26:08.094Z,4.15
2022-12-26T15:28:56.879Z,4.50
2022-12-26T15:31:36.884Z,5.93
2022-12-26T15:34:32.044Z,34.65
2022-12-26T15:37:03.299Z,23.83
2022-12-26T15:39:56.664Z,20.10
2022-12-26T15:42:48.066Z,24.50
2022-12-26T15:45:33.697Z,28.80
2022-12-26T15:48:25.624Z,31.35
2022-12-26T15:50:58.024Z,23.25
2022-12-26T15:54:00.342Z,25.35
2022-12-26T15:56:36.304Z,25.33
2022-12-26T15:59:09.282Z,31.27
2022-12-26T16:01:45.621Z,76.12
2022-12-26T16:04:21.253Z,54.15
2022-12-26T16:07:22.391Z,113.43
2022-12-26T16:09:55.323Z,57.92
2022-12-26T16:12:25.423Z,43.17
2022-12-26T16:15:25.413Z,45.35
2022-12-26T16:17:52.594Z,42.15
2022-12-26T16:20:45.374Z,48.95
2022-12-26T16:23:16.708Z,49.63
2022-12-26T16:25:51.624Z,55.70
2022-12-26T16:28:27.028Z,56.60
2022-12-26T16:30:54.273Z,62.95
2022-12-26T16:33:23.570Z,67.28
2022-12-26T16:35:57.547Z,67.45
2022-12-26T16:38:32.330Z,58.75
2022-12-26T16:41:00.970Z,85.65
2022-12-26T16:43:34.817Z,78.45
2022-12-26T16:46:06.406Z,57.97
2022-12-26T16:48:38.413Z,15.43
2022-12-26T16:51:13.789Z,21.48
2022-12-26T16:53:40.923Z,13.27
2022-12-26T16:56:28.473Z,27.60
2022-12-26T16:59:06.196Z,58.00
2022-12-26T17:01:34.849Z,41.47
2022-12-26T17:04:17.513Z,47.92
2022-12-26T17:06:51.621Z,55.47
2022-12-26T17:09:19.481Z,57.53
2022-12-26T17:12:03.029Z,53.28
2022-12-26T17:14:37.654Z,65.07
2022-12-26T17:17:28.009Z,67.60
2022-12-26T17:19:57.713Z,70.07
2022-12-26T17:22:32.172Z,89.05
2022-12-26T17:25:17.859Z,86.00
2022-12-26T17:27:45.842Z,91.28
2022-12-26T17:30:29.747Z,99.47
2022-12-26T17:33:03.201Z,81.80
2022-12-26T17:36:21.287Z,84.15
2022-12-26T17:38:26.462Z,78.72
2022-12-26T17:41:04.783Z,80.65
2022-12-26T17:43:39.522Z,77.97
2022-12-26T17:46:09.453Z,80.43
2022-12-26T17:51:09.356Z,69.22
2022-12-26T17:53:42.226Z,56.15
2022-12-26T17:56:18.197Z,52.78
2022-12-26T17:58:45.312Z,81.82
2022-12-26T18:01:17.449Z,80.72
2022-12-26T18:03:47.535Z,69.97
2022-12-26T18:06:17.278Z,39.55
2022-12-26T18:08:44.801Z,53.70
2022-12-26T18:11:13.621Z,76.20
2022-12-26T18:13:41.094Z,77.55
2022-12-26T18:16:10.855Z,103.32
2022-12-26T18:18:43.584Z,102.03
2022-12-26T18:21:13.011Z,99.90
2022-12-26T18:23:41.033Z,96.05
2022-12-26T18:26:17.900Z,92.20
2022-12-26T18:28:45.617Z,83.18
2022-12-26T18:31:16.847Z,87.32
2022-12-26T18:33:44.117Z,85.03
2022-12-26T18:36:17.320Z,214.35
2022-12-26T18:38:44.498Z,102.20
2022-12-26T18:41:20.116Z,94.65
2022-12-26T18:43:48.044Z,86.72
2022-12-26T18:46:23.921Z,84.15
2022-12-26T18:48:54.135Z,84.10
2022-12-26T18:51:21.991Z,88.78
2022-12-26T18:53:49.102Z,100.28
2022-12-26T18:56:19.233Z,95.70
2022-12-26T18:58:51.127Z,90.22
2022-12-26T19:01:21.337Z,89.10
2022-12-26T19:03:49.830Z,84.07
2022-12-26T19:06:25.946Z,84.43
2022-12-26T19:08:53.049Z,79.70
2022-12-26T19:11:20.069Z,83.22
2022-12-26T19:13:47.128Z,83.10
2022-12-26T19:16:14.170Z,87.20
2022-12-26T19:18:41.155Z,80.55
2022-12-26T19:21:13.388Z,83.75
2022-12-26T19:23:40.886Z,88.45
2022-12-26T19:26:17.364Z,84.62
2022-12-26T19:28:45.343Z,79.07
2022-12-26T19:31:15.609Z,103.90
2022-12-26T19:33:43.007Z,91.12
2022-12-26T19:36:10.877Z,85.60
2022-12-26T19:38:38.296Z,123.18
2022-12-26T19:41:07.953Z,98.25
2022-12-26T19:43:34.857Z,73.97
2022-12-26T19:46:03.856Z,74.03
2022-12-26T19:48:32.835Z,50.50
2022-12-26T19:51:11.614Z,41.45
2022-12-26T19:53:40.426Z,41.20
2022-12-26T19:56:17.277Z,39.80
2022-12-26T19:58:45.119Z,35.78
2022-12-26T20:01:16.527Z,29.55
2022-12-26T20:03:44.998Z,34.03
2022-12-26T20:06:18.052Z,34.60
2022-12-26T20:08:46.562Z,32.85
2022-12-26T20:11:17.485Z,35.05
2022-12-26T20:13:45.938Z,37.38
2022-12-26T20:16:45.963Z,38.17
2022-12-26T20:19:06.067Z,46.60
2022-12-26T20:21:33.272Z,43.38
2022-12-26T20:24:03.047Z,35.17
2022-12-26T20:26:30.262Z,38.55
2022-12-26T20:29:03.471Z,31.45
2022-12-26T20:31:32.949Z,29.23
2022-12-26T20:34:00.984Z,38.80
2022-12-26T20:36:34.231Z,39.40
2022-12-26T20:39:05.268Z,32.63
2022-12-26T20:41:34.583Z,33.53
2022-12-26T20:44:01.671Z,39.97
2022-12-26T20:46:36.099Z,45.75
2022-12-26T20:49:04.994Z,49.85
2022-12-26T20:51:37.421Z,68.12
2022-12-26T20:54:09.238Z,48.97
2022-12-26T20:56:37.427Z,92.90
2022-12-26T20:59:05.776Z,75.25
2022-12-26T21:01:32.926Z,111.93
